createdAt,value
2024-05-09T00:00:42.090Z,4.60
2024-05-09T00:03:10.507Z,5.57
2024-05-09T00:05:40.319Z,4.63
2024-05-09T00:08:11.972Z,4.60
2024-05-09T00:10:40.306Z,4.45
2024-05-09T00:13:11.317Z,4.70
2024-05-09T00:15:40.397Z,4.25
2024-05-09T00:18:09.876Z,4.40
2024-05-09T00:20:40.922Z,3.97
2024-05-09T00:23:10.748Z,4.30
2024-05-09T00:25:40.508Z,4.83
2024-05-09T00:28:07.215Z,4.18
2024-05-09T00:30:36.298Z,4.50
2024-05-09T00:33:06.204Z,4.78
2024-05-09T00:35:36.700Z,4.57
2024-05-09T00:38:04.078Z,5.10
2024-05-09T00:40:40.029Z,4.28
2024-05-09T00:43:13.400Z,4.25
2024-05-09T00:45:43.775Z,4.65
2024-05-09T00:48:21.555Z,5.07
2024-05-09T00:50:51.004Z,5.20
2024-05-09T00:53:21.113Z,4.45
2024-05-09T00:55:48.499Z,4.32
2024-05-09T00:58:18.330Z,4.63
2024-05-09T01:00:45.195Z,5.15
2024-05-09T01:03:13.735Z,5.13
2024-05-09T01:05:44.348Z,4.68
2024-05-09T01:08:12.138Z,4.68
2024-05-09T01:10:44.144Z,5.30
2024-05-09T01:13:12.764Z,5.05
2024-05-09T01:15:39.587Z,4.77
2024-05-09T01:18:12.134Z,5.10
2024-05-09T01:20:43.217Z,6.13
2024-05-09T01:23:14.171Z,5.05
2024-05-09T01:25:42.831Z,5.10
2024-05-09T01:28:12.617Z,5.10
2024-05-09T01:30:41.556Z,5.05
2024-05-09T01:33:10.383Z,5.38
2024-05-09T01:35:40.641Z,4.95
2024-05-09T01:38:12.844Z,5.80
2024-05-09T01:40:40.435Z,4.70
2024-05-09T01:43:11.368Z,4.65
2024-05-09T01:45:42.388Z,5.05
2024-05-09T01:48:10.970Z,4.93
2024-05-09T01:50:41.504Z,5.35
2024-05-09T01:53:11.695Z,4.83
2024-05-09T01:55:38.742Z,5.15
2024-05-09T01:58:08.795Z,5.32
2024-05-09T02:00:41.366Z,4.75
2024-05-09T02:03:16.107Z,5.40
2024-05-09T02:05:46.583Z,5.67
2024-05-09T02:08:19.387Z,5.45
2024-05-09T02:10:47.715Z,5.10
2024-05-09T02:13:15.410Z,4.88
2024-05-09T02:15:42.310Z,5.40
2024-05-09T02:18:10.264Z,5.00
2024-05-09T02:20:41.344Z,5.10
2024-05-09T02:23:11.042Z,5.45
2024-05-09T02:25:37.881Z,4.88
2024-05-09T02:28:04.893Z,5.45
2024-05-09T02:30:39.723Z,4.70
2024-05-09T02:33:10.081Z,5.15
2024-05-09T02:35:38.682Z,5.45
2024-05-09T02:38:07.710Z,5.82
2024-05-09T02:40:39.056Z,5.68
2024-05-09T02:43:11.180Z,5.87
2024-05-09T02:45:41.424Z,4.88
2024-05-09T02:48:14.777Z,5.07
2024-05-09T02:50:42.356Z,4.80
2024-05-09T02:53:11.894Z,5.57
2024-05-09T02:55:42.809Z,4.80
2024-05-09T02:58:10.542Z,5.28
2024-05-09T03:00:42.058Z,5.15
2024-05-09T03:03:12.871Z,4.88
2024-05-09T03:05:42.492Z,5.03
2024-05-09T03:08:09.810Z,5.60
2024-05-09T03:10:41.419Z,5.55
2024-05-09T03:13:15.384Z,6.22
2024-05-09T03:15:43.691Z,5.75
2024-05-09T03:18:13.553Z,5.97
2024-05-09T03:20:40.667Z,5.73
2024-05-09T03:23:10.431Z,5.88
2024-05-09T03:25:38.387Z,5.75
2024-05-09T03:28:05.567Z,5.43
2024-05-09T03:30:41.106Z,5.32
2024-05-09T03:33:15.292Z,5.40
2024-05-09T03:35:48.934Z,6.10
2024-05-09T03:38:18.524Z,5.68
2024-05-09T03:40:46.788Z,5.65
2024-05-09T03:43:14.319Z,5.80
2024-05-09T03:45:44.569Z,6.00
2024-05-09T03:48:11.706Z,5.65
2024-05-09T03:50:38.820Z,5.63
2024-05-09T03:53:06.308Z,5.32
2024-05-09T03:55:35.332Z,6.25
2024-05-09T03:58:04.608Z,6.20
2024-05-09T04:00:37.555Z,6.00
2024-05-09T04:03:09.478Z,5.38
2024-05-09T04:05:43.793Z,5.82
2024-05-09T04:08:13.769Z,6.57
2024-05-09T04:10:41.094Z,5.70
2024-05-09T04:13:10.246Z,6.65
2024-05-09T04:15:36.921Z,6.00
2024-05-09T04:18:06.180Z,5.57
2024-05-09T04:20:38.390Z,6.00
2024-05-09T04:23:11.051Z,5.47
2024-05-09T04:25:38.173Z,5.15
2024-05-09T04:28:05.376Z,5.93
2024-05-09T04:30:38.814Z,5.70
2024-05-09T04:33:10.887Z,4.97
2024-05-09T04:35:39.488Z,5.00
2024-05-09T04:38:06.631Z,5.68
2024-05-09T04:40:36.124Z,5.10
2024-05-09T04:43:15.839Z,5.28
2024-05-09T04:45:44.877Z,5.60
2024-05-09T04:48:11.917Z,5.80
2024-05-09T04:50:43.600Z,5.47
2024-05-09T04:53:15.710Z,5.28
2024-05-09T04:55:45.612Z,5.65
2024-05-09T04:58:12.443Z,5.75
2024-05-09T05:00:40.562Z,5.07
2024-05-09T05:03:13.405Z,5.40
2024-05-09T05:05:42.904Z,5.20
2024-05-09T05:08:18.440Z,5.97
2024-05-09T05:10:51.727Z,5.00
2024-05-09T05:13:25.111Z,5.20
2024-05-09T05:15:58.121Z,5.05
2024-05-09T05:18:26.722Z,5.20
2024-05-09T05:20:58.059Z,5.55
2024-05-09T05:23:25.008Z,5.78
2024-05-09T05:25:53.454Z,5.77
2024-05-09T05:28:23.147Z,6.00
2024-05-09T05:30:52.446Z,6.53
2024-05-09T05:33:19.852Z,5.97
2024-05-09T05:35:49.264Z,6.25
2024-05-09T05:38:19.120Z,5.90
2024-05-09T05:40:48.897Z,6.35
2024-05-09T05:43:19.028Z,5.82
2024-05-09T05:45:46.244Z,5.57
2024-05-09T05:48:16.229Z,5.90
2024-05-09T05:50:45.999Z,6.87
2024-05-09T05:53:13.004Z,5.65
2024-05-09T05:55:40.991Z,6.32
2024-05-09T05:58:11.782Z,6.97
2024-05-09T06:00:42.126Z,6.32
2024-05-09T06:03:10.394Z,6.37
2024-05-09T06:05:40.363Z,6.65
2024-05-09T06:08:10.218Z,7.25
2024-05-09T06:10:39.884Z,6.72
2024-05-09T06:13:11.252Z,7.03
2024-05-09T06:15:41.107Z,6.90
2024-05-09T06:18:12.344Z,7.45
2024-05-09T06:20:42.335Z,7.80
2024-05-09T06:23:15.293Z,8.18
2024-05-09T06:25:42.500Z,7.65
2024-05-09T06:28:09.691Z,7.50
2024-05-09T06:30:40.470Z,7.47
2024-05-09T06:33:13.650Z,7.82
2024-05-09T06:35:42.620Z,7.88
2024-05-09T06:38:09.834Z,7.55
2024-05-09T06:40:41.523Z,7.30
2024-05-09T06:43:18.643Z,7.78
2024-05-09T06:45:52.929Z,7.80
2024-05-09T06:48:22.807Z,8.30
2024-05-09T06:50:50.393Z,7.70
2024-05-09T06:53:22.743Z,7.90
2024-05-09T06:55:49.980Z,7.68
2024-05-09T06:58:18.937Z,8.43
2024-05-09T07:00:50.402Z,7.55
2024-05-09T07:03:18.775Z,8.55
2024-05-09T07:05:48.139Z,7.20
2024-05-09T07:08:16.072Z,8.05
2024-05-09T07:10:47.922Z,7.80
2024-05-09T07:13:15.755Z,8.52
2024-05-09T07:15:45.691Z,7.15
2024-05-09T07:18:16.532Z,7.60
2024-05-09T07:20:50.695Z,8.13
2024-05-09T07:23:18.328Z,8.20
2024-05-09T07:25:47.772Z,8.85
2024-05-09T07:28:19.847Z,7.88
2024-05-09T07:30:47.107Z,7.63
2024-05-09T07:33:22.189Z,8.15
2024-05-09T07:35:53.177Z,7.80
2024-05-09T07:38:22.368Z,8.10
2024-05-09T07:40:49.501Z,7.40
2024-05-09T07:43:18.830Z,7.47
2024-05-09T07:45:52.342Z,7.85
2024-05-09T07:52:38.826Z,7.47
2024-05-09T07:53:49.442Z,7.28
2024-05-09T07:56:22.377Z,7.83
2024-05-09T07:58:52.266Z,7.55
2024-05-09T08:01:20.216Z,6.82
2024-05-09T08:03:50.126Z,7.72
2024-05-09T08:06:17.071Z,7.30
2024-05-09T08:08:47.938Z,6.83
2024-05-09T08:11:14.754Z,7.05
2024-05-09T08:13:43.971Z,7.60
2024-05-09T08:16:13.292Z,7.75
2024-05-09T08:18:42.948Z,6.68
2024-05-09T08:21:11.925Z,6.70
2024-05-09T08:23:38.619Z,6.97
2024-05-09T08:26:05.679Z,6.35
2024-05-09T08:28:34.604Z,6.40
2024-05-09T08:31:05.172Z,6.47
2024-05-09T08:33:33.720Z,6.00
2024-05-09T08:36:00.508Z,6.20
2024-05-09T08:38:27.200Z,5.93
2024-05-09T08:40:53.954Z,6.15
2024-05-09T08:43:21.578Z,5.70
2024-05-09T08:45:49.674Z,6.23
2024-05-09T08:48:19.691Z,6.22
2024-05-09T08:50:54.260Z,5.57
2024-05-09T08:53:21.190Z,6.38
2024-05-09T08:55:53.394Z,5.97
2024-05-09T08:58:20.540Z,5.87
2024-05-09T09:00:47.962Z,5.90
2024-05-09T09:03:19.677Z,6.30
2024-05-09T09:05:56.544Z,6.18
2024-05-09T09:08:25.951Z,5.53
2024-05-09T09:11:00.221Z,5.57
2024-05-09T09:13:27.651Z,5.80
2024-05-09T09:15:57.905Z,6.30
2024-05-09T09:18:26.749Z,6.25
2024-05-09T09:20:58.695Z,5.53
2024-05-09T09:23:29.860Z,5.50
2024-05-09T09:26:00.352Z,5.57
2024-05-09T09:28:29.963Z,6.35
2024-05-09T09:31:05.794Z,5.97
2024-05-09T09:33:33.099Z,6.70
2024-05-09T09:36:02.845Z,6.40
2024-05-09T09:38:32.559Z,6.05
2024-05-09T09:41:01.513Z,6.13
2024-05-09T09:43:29.149Z,5.68
2024-05-09T09:45:59.964Z,5.38
2024-05-09T09:48:30.165Z,5.70
2024-05-09T09:50:57.351Z,5.50
2024-05-09T09:53:28.060Z,5.10
2024-05-09T09:55:56.212Z,5.50
2024-05-09T09:58:25.615Z,4.78
2024-05-09T10:00:54.951Z,4.93
2024-05-09T10:03:24.274Z,5.55
2024-05-09T10:05:51.897Z,5.20
2024-05-09T10:08:23.100Z,5.18
2024-05-09T10:10:52.692Z,4.88
2024-05-09T10:13:34.500Z,4.40
2024-05-09T10:16:12.075Z,4.43
2024-05-09T10:18:40.427Z,4.72
2024-05-09T10:21:17.519Z,4.53
2024-05-09T10:23:57.966Z,4.80
2024-05-09T10:26:38.450Z,4.20
2024-05-09T10:29:17.890Z,3.67
2024-05-09T10:31:46.483Z,3.70
2024-05-09T10:34:20.715Z,4.53
2024-05-09T10:36:55.274Z,4.40
2024-05-09T10:39:22.271Z,4.37
2024-05-09T10:41:51.952Z,4.70
2024-05-09T10:44:18.780Z,4.38
2024-05-09T10:46:46.329Z,4.57
2024-05-09T10:49:17.078Z,4.47
2024-05-09T10:51:45.407Z,4.07
2024-05-09T10:54:14.387Z,4.32
2024-05-09T10:56:42.153Z,4.03
2024-05-09T10:59:08.867Z,4.22
2024-05-09T11:01:36.476Z,4.28
2024-05-09T11:04:05.685Z,4.20
2024-05-09T11:06:35.039Z,4.63
2024-05-09T11:09:01.970Z,4.05
2024-05-09T11:11:31.962Z,4.90
2024-05-09T11:14:11.022Z,3.88
2024-05-09T11:16:37.724Z,4.27
2024-05-09T11:19:06.770Z,4.00
2024-05-09T11:21:34.011Z,4.50
2024-05-09T11:24:00.825Z,4.60
2024-05-09T11:26:29.465Z,4.22
2024-05-09T11:28:56.257Z,4.40
2024-05-09T11:31:23.445Z,3.72
2024-05-09T11:33:53.701Z,3.97
2024-05-09T11:36:20.528Z,4.07
2024-05-09T11:38:47.394Z,3.88
2024-05-09T11:41:18.592Z,4.07
2024-05-09T11:43:45.535Z,4.55
2024-05-09T11:46:12.495Z,4.95
2024-05-09T11:48:41.686Z,4.30
2024-05-09T11:51:10.947Z,4.18
2024-05-09T11:53:37.721Z,5.03
2024-05-09T11:56:07.155Z,4.95
2024-05-09T11:58:35.009Z,5.15
2024-05-09T12:01:06.412Z,4.78
2024-05-09T12:03:38.144Z,5.07
2024-05-09T12:06:05.262Z,4.60
2024-05-09T12:08:36.646Z,4.68
2024-05-09T12:11:06.052Z,4.38
2024-05-09T12:13:33.048Z,4.25
2024-05-09T12:15:59.826Z,4.70
2024-05-09T12:18:26.582Z,3.77
2024-05-09T12:20:55.510Z,4.25
2024-05-09T12:23:22.174Z,4.20
2024-05-09T12:25:51.101Z,3.80
2024-05-09T12:28:22.700Z,4.40
2024-05-09T12:30:50.765Z,3.50
2024-05-09T12:33:19.854Z,3.88
2024-05-09T12:35:49.246Z,3.90
2024-05-09T12:38:19.895Z,4.10
2024-05-09T12:40:46.613Z,3.42
2024-05-09T12:43:13.458Z,4.50
2024-05-09T12:45:40.442Z,4.50
2024-05-09T12:48:12.050Z,4.35
2024-05-09T12:50:40.380Z,3.80
2024-05-09T12:53:07.167Z,4.22
2024-05-09T12:55:44.241Z,3.90
2024-05-09T12:58:21.813Z,4.10
2024-05-09T13:00:48.806Z,4.07
2024-05-09T13:03:15.680Z,3.90
2024-05-09T13:05:44.829Z,4.10
2024-05-09T13:08:12.495Z,4.47
2024-05-09T13:10:39.301Z,4.70
2024-05-09T13:13:08.662Z,4.28
2024-05-09T13:15:37.766Z,4.28
2024-05-09T13:18:06.160Z,3.80
2024-05-09T13:20:35.429Z,4.07
2024-05-09T13:23:07.721Z,3.97
2024-05-09T13:25:35.943Z,3.90
2024-05-09T13:28:06.833Z,4.25
2024-05-09T13:30:41.420Z,4.40
2024-05-09T13:33:14.090Z,3.90
2024-05-09T13:35:48.761Z,4.30
2024-05-09T13:38:19.330Z,3.85
2024-05-09T13:40:49.842Z,3.50
2024-05-09T13:43:17.888Z,3.78
2024-05-09T13:45:44.986Z,3.80
2024-05-09T13:48:14.543Z,3.85
2024-05-09T13:50:43.826Z,3.53
2024-05-09T13:53:10.496Z,3.28
2024-05-09T13:55:40.383Z,3.65
2024-05-09T13:58:08.823Z,3.60
2024-05-09T14:00:44.475Z,3.20
2024-05-09T14:03:20.010Z,3.15
2024-05-09T14:05:51.276Z,3.17
2024-05-09T14:08:22.688Z,3.17
2024-05-09T14:10:52.427Z,3.47
2024-05-09T14:13:22.272Z,3.53
2024-05-09T14:15:49.471Z,3.45
2024-05-09T14:18:16.652Z,3.25
2024-05-09T14:20:46.555Z,3.50
2024-05-09T14:23:14.492Z,2.80
2024-05-09T14:25:42.897Z,2.70
2024-05-09T14:28:11.199Z,2.80
2024-05-09T14:30:40.875Z,2.88
2024-05-09T14:33:10.451Z,2.50
2024-05-09T14:35:40.546Z,3.00
2024-05-09T14:38:08.834Z,3.08
2024-05-09T14:40:43.088Z,2.83
2024-05-09T14:43:15.068Z,2.95
2024-05-09T14:45:45.191Z,2.70
2024-05-09T14:48:15.578Z,3.10
2024-05-09T14:50:42.745Z,2.60
2024-05-09T14:53:11.248Z,2.53
2024-05-09T14:55:42.474Z,2.95
2024-05-09T14:58:11.543Z,2.88
2024-05-09T15:00:49.737Z,2.87
2024-05-09T15:03:19.725Z,2.20
2024-05-09T15:05:50.372Z,2.67
2024-05-09T15:08:18.774Z,2.90
2024-05-09T15:10:46.299Z,2.63
2024-05-09T15:13:15.584Z,2.70
2024-05-09T15:15:45.882Z,2.88
2024-05-09T15:18:16.669Z,2.97
2024-05-09T15:20:44.808Z,2.60
2024-05-09T15:23:13.961Z,2.72
2024-05-09T15:25:40.911Z,2.70
2024-05-09T15:28:10.038Z,2.53
2024-05-09T15:30:37.598Z,2.63
2024-05-09T15:33:08.177Z,2.72
2024-05-09T15:38:08.884Z,2.80
2024-05-09T15:40:40.278Z,2.42
2024-05-09T15:43:10.046Z,2.60
2024-05-09T15:45:38.254Z,2.58
2024-05-09T15:48:06.269Z,2.00
2024-05-09T15:50:38.699Z,2.40
2024-05-09T15:53:09.259Z,2.42
2024-05-09T15:55:38.991Z,2.67
2024-05-09T15:58:06.808Z,2.90
2024-05-09T16:00:38.783Z,2.78
2024-05-09T16:03:13.765Z,2.60
2024-05-09T16:05:42.998Z,3.00
2024-05-09T16:08:13.501Z,2.67
2024-05-09T16:10:44.539Z,2.70
2024-05-09T16:13:12.828Z,2.60
2024-05-09T16:15:39.747Z,3.10
2024-05-09T16:18:09.280Z,2.95
2024-05-09T16:20:40.203Z,2.50
2024-05-09T16:23:11.656Z,2.10
2024-05-09T16:25:45.210Z,2.28
2024-05-09T16:28:12.566Z,2.67
2024-05-09T16:30:42.175Z,2.33
2024-05-09T16:33:09.709Z,2.78
2024-05-09T16:35:39.536Z,2.53
2024-05-09T16:38:06.511Z,2.70
2024-05-09T16:40:39.938Z,3.10
2024-05-09T16:43:12.323Z,2.65
2024-05-09T16:45:41.067Z,2.53
2024-05-09T16:48:11.383Z,2.60
2024-05-09T16:50:39.073Z,2.67
2024-05-09T16:53:06.766Z,3.13
2024-05-09T16:55:34.759Z,2.75
2024-05-09T16:58:02.166Z,2.28
2024-05-09T17:00:39.738Z,2.83
2024-05-09T17:03:11.555Z,2.90
2024-05-09T17:05:39.520Z,2.63
2024-05-09T17:08:07.527Z,2.90
2024-05-09T17:10:36.969Z,2.45
2024-05-09T17:13:08.607Z,2.70
2024-05-09T17:15:37.172Z,2.40
2024-05-09T17:18:06.085Z,2.70
2024-05-09T17:20:35.899Z,2.60
2024-05-09T17:23:12.654Z,2.78
2024-05-09T17:25:40.565Z,2.10
2024-05-09T17:28:08.559Z,2.50
2024-05-09T17:30:38.380Z,2.13
2024-05-09T17:33:11.172Z,2.30
2024-05-09T17:35:41.635Z,2.30
2024-05-09T17:38:11.205Z,2.83
2024-05-09T17:40:39.036Z,2.75
2024-05-09T17:43:10.757Z,2.37
2024-05-09T17:45:40.065Z,2.50
2024-05-09T17:48:09.587Z,2.45
2024-05-09T17:50:39.137Z,2.45
2024-05-09T17:53:08.792Z,2.00
2024-05-09T17:55:40.631Z,2.00
2024-05-09T17:58:11.885Z,2.28
2024-05-09T18:00:42.432Z,2.85
2024-05-09T18:03:13.252Z,2.42
2024-05-09T18:05:41.816Z,2.38
2024-05-09T18:08:09.175Z,2.50
2024-05-09T18:10:40.498Z,2.83
2024-05-09T18:13:12.104Z,2.50
2024-05-09T18:15:41.786Z,2.60
2024-05-09T18:18:11.918Z,2.85
2024-05-09T18:20:43.872Z,2.47
2024-05-09T18:23:15.608Z,2.63
2024-05-09T18:25:43.627Z,2.40
2024-05-09T18:28:13.675Z,2.75
2024-05-09T18:30:41.132Z,2.30
2024-05-09T18:33:10.672Z,2.60
2024-05-09T18:35:37.916Z,2.47
2024-05-09T18:38:05.597Z,2.70
2024-05-09T18:40:37.427Z,2.33
2024-05-09T18:43:07.574Z,2.40
2024-05-09T18:45:36.856Z,2.47
2024-05-09T18:48:05.401Z,2.47
2024-05-09T18:50:37.105Z,2.60
2024-05-09T18:53:08.882Z,2.88
2024-05-09T18:55:35.731Z,2.10
2024-05-09T18:58:03.707Z,2.27
2024-05-09T19:00:35.318Z,2.50
2024-05-09T19:03:09.336Z,2.30
2024-05-09T19:05:41.104Z,2.50
2024-05-09T19:08:08.908Z,2.22
2024-05-09T19:10:37.434Z,2.60
2024-05-09T19:13:08.815Z,2.45
2024-05-09T19:15:39.313Z,2.45
2024-05-09T19:18:07.359Z,2.40
2024-05-09T19:20:35.967Z,2.38
2024-05-09T19:23:06.972Z,2.70
2024-05-09T19:25:35.256Z,2.78
2024-05-09T19:28:03.193Z,2.30
2024-05-09T19:30:39.273Z,2.65
2024-05-09T19:33:09.861Z,2.65
2024-05-09T19:35:37.636Z,2.60
2024-05-09T19:38:11.305Z,2.83
2024-05-09T19:40:40.515Z,2.55
2024-05-09T19:43:07.558Z,2.20
2024-05-09T19:45:37.029Z,2.45
2024-05-09T19:48:05.048Z,2.37
2024-05-09T19:50:40.422Z,2.60
2024-05-09T19:53:11.426Z,2.60
2024-05-09T19:55:40.788Z,2.30
2024-05-09T19:58:11.049Z,2.58
2024-05-09T20:00:41.209Z,2.30
2024-05-09T20:03:14.314Z,2.53
2024-05-09T20:05:46.295Z,2.90
2024-05-09T20:08:16.212Z,2.28
2024-05-09T20:10:43.289Z,2.50
2024-05-09T20:13:10.239Z,2.50
2024-05-09T20:15:41.524Z,2.50
2024-05-09T20:18:08.404Z,2.85
2024-05-09T20:20:39.892Z,2.67
2024-05-09T20:23:13.089Z,2.22
2024-05-09T20:25:40.412Z,2.60
2024-05-09T20:28:09.842Z,2.80
2024-05-09T20:30:41.530Z,2.80
2024-05-09T20:33:14.266Z,2.42
2024-05-09T20:35:41.416Z,3.03
2024-05-09T20:38:08.304Z,2.30
2024-05-09T20:40:38.003Z,2.53
2024-05-09T20:43:09.955Z,2.50
2024-05-09T20:45:37.262Z,2.53
2024-05-09T20:48:06.619Z,2.63
2024-05-09T20:50:39.147Z,2.33
2024-05-09T20:53:13.815Z,3.00
2024-05-09T20:55:44.891Z,2.55
2024-05-09T20:58:12.249Z,2.30
2024-05-09T21:00:44.525Z,2.40
2024-05-09T21:03:14.629Z,3.10
2024-05-09T21:05:45.034Z,2.58
2024-05-09T21:08:14.179Z,2.58
2024-05-09T21:10:45.744Z,2.78
2024-05-09T21:13:12.506Z,2.50
2024-05-09T21:15:39.307Z,2.33
2024-05-09T21:18:08.457Z,2.63
2024-05-09T21:20:35.510Z,2.72
2024-05-09T21:23:04.837Z,2.72
2024-05-09T21:25:31.924Z,2.65
2024-05-09T21:27:59.079Z,2.73
2024-05-09T21:30:32.946Z,2.60
2024-05-09T21:33:14.865Z,3.20
2024-05-09T21:35:45.404Z,2.70
2024-05-09T21:38:14.117Z,2.67
2024-05-09T21:40:44.231Z,2.63
2024-05-09T21:43:11.200Z,2.72
2024-05-09T21:45:38.060Z,2.80
2024-05-09T21:48:07.848Z,2.50
2024-05-09T21:50:40.255Z,2.45
2024-05-09T21:53:12.830Z,2.50
2024-05-09T21:55:40.123Z,2.60
2024-05-09T21:58:09.061Z,2.53
2024-05-09T22:00:39.248Z,2.50
2024-05-09T22:03:08.326Z,2.72
2024-05-09T22:05:36.079Z,2.47
2024-05-09T22:08:03.157Z,2.47
2024-05-09T22:10:34.468Z,2.72
2024-05-09T22:13:04.695Z,2.60
2024-05-09T22:15:37.472Z,2.70
2024-05-09T22:18:05.933Z,2.60
2024-05-09T22:20:37.700Z,2.80
2024-05-09T22:23:09.054Z,2.72
2024-05-09T22:25:39.225Z,2.83
2024-05-09T22:28:06.373Z,2.97
2024-05-09T22:30:37.368Z,2.43
2024-05-09T22:33:11.437Z,3.50
2024-05-09T22:35:44.029Z,2.47
2024-05-09T22:38:10.717Z,2.90
2024-05-09T22:40:45.632Z,2.75
2024-05-09T22:43:21.110Z,2.60
2024-05-09T22:45:55.179Z,2.90
2024-05-09T22:48:23.678Z,3.10
2024-05-09T22:50:53.198Z,2.60
2024-05-09T22:53:22.007Z,2.70
2024-05-09T22:55:51.533Z,2.87
2024-05-09T22:58:21.024Z,3.08
2024-05-09T23:00:50.973Z,2.70
2024-05-09T23:03:21.227Z,2.83
2024-05-09T23:05:50.826Z,2.80
2024-05-09T23:08:21.007Z,2.93
2024-05-09T23:10:47.764Z,2.88
2024-05-09T23:13:14.625Z,3.13
2024-05-09T23:15:41.514Z,3.33
2024-05-09T23:18:08.477Z,3.47
2024-05-09T23:20:38.801Z,4.63
2024-05-09T23:23:12.449Z,4.70
2024-05-09T23:25:41.549Z,5.05
2024-05-09T23:28:08.749Z,4.05
2024-05-09T23:30:39.034Z,4.07
2024-05-09T23:33:13.713Z,4.10
2024-05-09T23:35:45.132Z,3.40
2024-05-09T23:38:14.569Z,3.25
2024-05-09T23:40:42.451Z,3.10
2024-05-09T23:43:13.303Z,2.67
2024-05-09T23:45:43.152Z,2.73
2024-05-09T23:48:12.545Z,3.03
2024-05-09T23:50:40.488Z,3.00
2024-05-09T23:53:09.214Z,3.05
2024-05-09T23:55:39.258Z,2.97
2024-05-09T23:58:09.064Z,2.50
